nws-alerts: Checking more than four warning/county codes can delay the loading of your pages. You should use a cron job to get the data.
EllijayWeather Station Historical Data
Daily Summary for January 30, 2019 Units:  English    Metric   Both
Daily Weekly Monthly Yearly Custom
  High: Low: Average:
Temperature: 35.8 °F 14.7 °F 25.2 °F
Dew Point: 19.0 °F 10.9 °F 15.1 °F
Humidity: 90% 46% 67%
Wind Speed: 10.1mph 0.0mph 0.4mph
Wind Gust: 10.0mph - -
Wind- - West
Pressure: 30.42 in 30.18 in -
Precipitation: 0.00 in    
Historical Graphs
 
 
Tabular Data for January 30, 2019
Time Temperature Dew Point Pressure Wind Wind Speed Wind Gust Humidity Rainfall Rate (Hourly) solar
00:04 21.0 °F 12.2 °F 30.20 in Calm     68% 0.00 in meteobridge W/m2
00:09 21.0 °F 11.1 °F 30.19 in Calm     65% 0.00 in meteobridge W/m2
00:14 21.2 °F 10.9 °F 30.20 in Calm   3.0 mph 64% 0.00 in meteobridge W/m2
00:19 21.4 °F 11.1 °F 30.20 in Calm     64% 0.00 in meteobridge W/m2
00:24 21.4 °F 11.8 °F 30.20 in Calm     66% 0.00 in meteobridge W/m2
00:29 21.4 °F 11.8 °F 30.19 in Calm     66% 0.00 in meteobridge W/m2
00:34 21.2 °F 11.3 °F 30.19 in Calm     65% 0.00 in meteobridge W/m2
00:39 21.2 °F 12.0 °F 30.19 in Calm     67% 0.00 in meteobridge W/m2
00:44 21.0 °F 12.7 °F 30.19 in Calm     70% 0.00 in meteobridge W/m2
00:49 21.0 °F 13.1 °F 30.19 in Calm     71% 0.00 in meteobridge W/m2
00:54 20.8 °F 12.6 °F 30.19 in Calm     70% 0.00 in meteobridge W/m2
00:59 20.7 °F 12.7 °F 30.19 in Calm     71% 0.00 in meteobridge W/m2
01:04 20.7 °F 12.7 °F 30.19 in Calm     71% 0.00 in meteobridge W/m2
01:09 20.5 °F 12.2 °F 30.19 in Calm     70% 0.00 in meteobridge W/m2
01:14 20.1 °F 12.2 °F 30.18 in Calm     71% 0.00 in meteobridge W/m2
01:19 19.9 °F 12.0 °F 30.18 in Calm     71% 0.00 in meteobridge W/m2
01:24 19.8 °F 11.5 °F 30.19 in Calm     70% 0.00 in meteobridge W/m2
01:29 19.6 °F 11.5 °F 30.19 in Calm     70% 0.00 in meteobridge W/m2
01:34 19.6 °F 12.4 °F 30.18 in Calm     73% 0.00 in meteobridge W/m2
01:39 19.4 °F 12.6 °F 30.19 in Calm     74% 0.00 in meteobridge W/m2
01:43 19.2 °F 12.0 °F 30.19 in Calm     73% 0.00 in meteobridge W/m2
01:49 19.0 °F 11.5 °F 30.19 in Calm     72% 0.00 in meteobridge W/m2
01:54 18.9 °F 11.3 °F 30.19 in Calm     72% 0.00 in meteobridge W/m2
01:59 18.9 °F 12.0 °F 30.19 in Calm     74% 0.00 in meteobridge W/m2
02:04 18.9 °F 12.0 °F 30.19 in Calm     74% 0.00 in meteobridge W/m2
02:09 18.5 °F 12.6 °F 30.20 in Calm     77% 0.00 in meteobridge W/m2
02:14 18.5 °F 12.6 °F 30.20 in Calm     77% 0.00 in meteobridge W/m2
02:19 18.3 °F 12.4 °F 30.20 in Calm     77% 0.00 in meteobridge W/m2
02:24 18.1 °F 12.2 °F 30.20 in Calm     77% 0.00 in meteobridge W/m2
02:29 18.1 °F 11.8 °F 30.20 in Calm     76% 0.00 in meteobridge W/m2
02:34 18.1 °F 11.8 °F 30.21 in Calm     76% 0.00 in meteobridge W/m2
02:39 18.0 °F 12.0 °F 30.21 in Calm     77% 0.00 in meteobridge W/m2
02:44 18.0 °F 12.0 °F 30.21 in Calm     77% 0.00 in meteobridge W/m2
02:49 17.8 °F 12.0 °F 30.20 in Calm     78% 0.00 in meteobridge W/m2
02:54 17.8 °F 11.8 °F 30.21 in Calm     77% 0.00 in meteobridge W/m2
02:59 17.6 °F 11.8 °F 30.21 in Calm     78% 0.00 in meteobridge W/m2
03:04 17.4 °F 11.7 °F 30.21 in Calm     78% 0.00 in meteobridge W/m2
03:09 17.2 °F 11.8 °F 30.21 in Calm     79% 0.00 in meteobridge W/m2
03:14 17.2 °F 11.8 °F 30.21 in Calm     79% 0.00 in meteobridge W/m2
03:19 17.1 °F 12.0 °F 30.21 in Calm     80% 0.00 in meteobridge W/m2
03:24 17.1 °F 12.0 °F 30.21 in Calm     80% 0.00 in meteobridge W/m2
03:29 16.9 °F 11.8 °F 30.21 in Calm     80% 0.00 in meteobridge W/m2
03:34 16.9 °F 11.8 °F 30.21 in Calm     80% 0.00 in meteobridge W/m2
03:39 16.7 °F 11.8 °F 30.22 in Calm     81% 0.00 in meteobridge W/m2
03:44 16.5 °F 11.7 °F 30.22 in Calm     81% 0.00 in meteobridge W/m2
03:49 16.5 °F 11.7 °F 30.22 in Calm     81% 0.00 in meteobridge W/m2
03:53 16.5 °F 11.7 °F 30.22 in Calm     81% 0.00 in meteobridge W/m2
03:59 16.3 °F 11.5 °F 30.22 in Calm     81% 0.00 in meteobridge W/m2
04:04 16.3 °F 11.8 °F 30.22 in Calm     82% 0.00 in meteobridge W/m2
04:09 16.2 °F 11.7 °F 30.22 in Calm     82% 0.00 in meteobridge W/m2
04:14 16.2 °F 11.7 °F 30.22 in Calm     82% 0.00 in meteobridge W/m2
04:19 16.2 °F 11.8 °F 30.22 in Calm     83% 0.00 in meteobridge W/m2
04:24 16.0 °F 11.7 °F 30.22 in Calm     83% 0.00 in meteobridge W/m2
04:28 16.0 °F 11.7 °F 30.22 in Calm     83% 0.00 in meteobridge W/m2
04:34 16.0 °F 11.7 °F 30.22 in Calm     83% 0.00 in meteobridge W/m2
04:39 16.0 °F 12.0 °F 30.22 in Calm     84% 0.00 in meteobridge W/m2
04:44 15.8 °F 11.8 °F 30.22 in Calm     84% 0.00 in meteobridge W/m2
04:49 15.6 °F 11.7 °F 30.22 in Calm     84% 0.00 in meteobridge W/m2
04:54 15.6 °F 11.8 °F 30.23 in Calm     85% 0.00 in meteobridge W/m2
04:59 15.6 °F 11.7 °F 30.23 in Calm     84% 0.00 in meteobridge W/m2
05:04 15.6 °F 11.8 °F 30.23 in Calm     85% 0.00 in meteobridge W/m2
05:09 15.6 °F 11.8 °F 30.23 in Calm     85% 0.00 in meteobridge W/m2
05:14 15.4 °F 11.7 °F 30.23 in Calm     85% 0.00 in meteobridge W/m2
05:19 15.4 °F 12.0 °F 30.23 in Calm     86% 0.00 in meteobridge W/m2
05:24 15.4 °F 12.0 °F 30.24 in Calm     86% 0.00 in meteobridge W/m2
05:29 15.4 °F 12.0 °F 30.24 in Calm     86% 0.00 in meteobridge W/m2
05:34 15.3 °F 11.8 °F 30.24 in Calm     86% 0.00 in meteobridge W/m2
05:39 15.3 °F 12.0 °F 30.24 in Calm     87% 0.00 in meteobridge W/m2
05:44 15.3 °F 12.0 °F 30.24 in Calm     87% 0.00 in meteobridge W/m2
05:49 15.3 °F 12.0 °F 30.24 in Calm     87% 0.00 in meteobridge W/m2
05:54 15.3 °F 12.0 °F 30.24 in Calm     87% 0.00 in meteobridge W/m2
05:59 15.3 °F 12.0 °F 30.24 in Calm     87% 0.00 in meteobridge W/m2
06:04 15.3 °F 12.0 °F 30.24 in Calm     87% 0.00 in meteobridge W/m2
06:09 15.1 °F 11.8 °F 30.24 in Calm     87% 0.00 in meteobridge W/m2
06:14 15.1 °F 11.8 °F 30.24 in Calm     87% 0.00 in meteobridge W/m2
06:19 15.1 °F 12.2 °F 30.25 in Calm     88% 0.00 in meteobridge W/m2
06:24 15.1 °F 12.2 °F 30.24 in Calm     88% 0.00 in meteobridge W/m2
06:29 15.1 °F 11.8 °F 30.24 in Calm     87% 0.00 in meteobridge W/m2
06:34 15.1 °F 12.2 °F 30.24 in Calm     88% 0.00 in meteobridge W/m2
06:39 15.1 °F 11.8 °F 30.25 in Calm     87% 0.00 in meteobridge W/m2
06:44 15.1 °F 12.2 °F 30.24 in Calm     88% 0.00 in meteobridge W/m2
06:49 14.9 °F 12.0 °F 30.25 in Calm     88% 0.00 in meteobridge W/m2
06:54 15.1 °F 12.2 °F 30.24 in Calm     88% 0.00 in meteobridge W/m2
06:59 14.9 °F 11.7 °F 30.24 in Calm     87% 0.00 in meteobridge W/m2
07:04 14.7 °F 11.5 °F 30.25 in Calm     87% 0.00 in meteobridge W/m2
07:09 14.7 °F 11.8 °F 30.25 in Calm     88% 0.00 in meteobridge W/m2
07:14 14.7 °F 11.8 °F 30.25 in Calm     88% 0.00 in meteobridge W/m2
07:19 14.7 °F 12.0 °F 30.25 in Calm     89% 0.00 in meteobridge W/m2
07:24 14.9 °F 12.2 °F 30.26 in Calm     89% 0.00 in meteobridge W/m2
07:29 14.9 °F 12.0 °F 30.26 in Calm     88% 0.00 in meteobridge W/m2
07:34 14.9 °F 12.2 °F 30.26 in Calm     89% 0.00 in meteobridge W/m2
07:39 14.9 °F 12.2 °F 30.26 in Calm     89% 0.00 in meteobridge W/m2
07:44 15.1 °F 12.2 °F 30.27 in Calm     88% 0.00 in meteobridge W/m2
07:49 15.1 °F 12.4 °F 30.27 in Calm     89% 0.00 in meteobridge W/m2
07:54 15.1 °F 12.4 °F 30.27 in Calm     89% 0.00 in meteobridge W/m2
07:59 15.1 °F 12.4 °F 30.27 in Calm     89% 0.00 in meteobridge W/m2
08:04 15.3 °F 12.6 °F 30.28 in Calm     89% 0.00 in meteobridge W/m2
08:09 15.4 °F 12.7 °F 30.28 in Calm     89% 0.00 in meteobridge W/m2
08:14 15.6 °F 13.3 °F 30.29 in Calm     90% 0.00 in meteobridge W/m2
08:19 16.0 °F 13.6 °F 30.29 in Calm     90% 0.00 in meteobridge W/m2
08:24 16.3 °F 14.0 °F 30.29 in Calm     90% 0.00 in meteobridge W/m2
08:29 16.9 °F 14.2 °F 30.29 in Calm     89% 0.00 in meteobridge W/m2
08:34 17.1 °F 14.4 °F 30.29 in Calm     89% 0.00 in meteobridge W/m2
08:39 17.4 °F 14.7 °F 30.29 in Calm     89% 0.00 in meteobridge W/m2
08:44 17.8 °F 15.1 °F 30.30 in Calm     89% 0.00 in meteobridge W/m2
08:49 18.1 °F 15.3 °F 30.30 in Calm     88% 0.00 in meteobridge W/m2
08:54 18.7 °F 15.8 °F 30.30 in Calm     88% 0.00 in meteobridge W/m2
08:59 18.9 °F 16.0 °F 30.30 in Calm     88% 0.00 in meteobridge W/m2
09:04 19.4 °F 16.2 °F 30.31 in Calm     87% 0.00 in meteobridge W/m2
09:09 19.9 °F 16.2 °F 30.31 in Calm     85% 0.00 in meteobridge W/m2
09:14 20.8 °F 16.7 °F 30.32 in Calm     84% 0.00 in meteobridge W/m2
09:19 21.6 °F 17.4 °F 30.32 in Calm     84% 0.00 in meteobridge W/m2
09:24 22.5 °F 17.6 °F 30.32 in Calm   2.0 mph 81% 0.00 in meteobridge W/m2
09:29 23.5 °F 15.8 °F 30.32 in NNW 2.9 mph 3.0 mph 72% 0.00 in meteobridge W/m2
09:34 24.6 °F 15.6 °F 30.32 in WNW 2.0 mph 4.0 mph 68% 0.00 in meteobridge W/m2
09:39 25.9 °F 14.7 °F 30.32 in WNW 2.0 mph 2.0 mph 62% 0.00 in meteobridge W/m2
09:44 26.4 °F 15.6 °F 30.32 in Calm     63% 0.00 in meteobridge W/m2
09:49 27.1 °F 14.4 °F 30.32 in Calm   1.0 mph 58% 0.00 in meteobridge W/m2
09:54 27.9 °F 14.2 °F 30.32 in NW 0.9 mph 2.0 mph 56% 0.00 in meteobridge W/m2
09:59 28.2 °F 14.2 °F 30.32 in Calm     55% 0.00 in meteobridge W/m2
10:04 28.8 °F 14.7 °F 30.32 in Calm   3.0 mph 55% 0.00 in meteobridge W/m2
10:09 29.3 °F 15.1 °F 30.32 in Calm     55% 0.00 in meteobridge W/m2
10:14 29.8 °F 14.7 °F 30.32 in Calm   5.0 mph 53% 0.00 in meteobridge W/m2
10:19 30.0 °F 14.9 °F 30.32 in Calm   1.0 mph 53% 0.00 in meteobridge W/m2
10:24 30.2 °F 14.2 °F 30.33 in ESE 4.9 mph 6.0 mph 51% 0.00 in meteobridge W/m2
10:29 30.2 °F 15.6 °F 30.33 in Calm   2.0 mph 54% 0.00 in meteobridge W/m2
10:34 30.4 °F 14.4 °F 30.33 in Calm   5.0 mph 51% 0.00 in meteobridge W/m2
10:39 30.6 °F 15.1 °F 30.33 in Calm   2.0 mph 52% 0.00 in meteobridge W/m2
10:44 30.7 °F 15.3 °F 30.33 in NNW 2.0 mph 5.0 mph 52% 0.00 in meteobridge W/m2
10:49 30.7 °F 15.3 °F 30.33 in West 0.9 mph 4.0 mph 52% 0.00 in meteobridge W/m2
10:54 30.7 °F 16.0 °F 30.33 in Calm   1.0 mph 54% 0.00 in meteobridge W/m2
10:59 30.9 °F 15.4 °F 30.34 in Calm   5.0 mph 52% 0.00 in meteobridge W/m2
11:04 30.9 °F 14.9 °F 30.34 in Calm   4.0 mph 51% 0.00 in meteobridge W/m2
11:09 31.1 °F 16.3 °F 30.34 in WNW 0.9 mph 4.0 mph 54% 0.00 in meteobridge W/m2
11:14 31.3 °F 15.6 °F 30.34 in Calm   3.0 mph 52% 0.00 in meteobridge W/m2
11:19 31.5 °F 16.7 °F 30.35 in Calm   3.0 mph 54% 0.00 in meteobridge W/m2
11:24 31.6 °F 15.6 °F 30.34 in Calm   3.0 mph 51% 0.00 in meteobridge W/m2
11:29 31.6 °F 15.6 °F 30.34 in WNW 2.0 mph 6.0 mph 51% 0.00 in meteobridge W/m2
11:34 31.6 °F 15.1 °F 30.34 in NNW 6.9 mph 9.0 mph 50% 0.00 in meteobridge W/m2
11:39 31.6 °F 15.6 °F 30.34 in Calm   3.0 mph 51% 0.00 in meteobridge W/m2
11:44 31.6 °F 16.0 °F 30.34 in ENE 4.0 mph 8.0 mph 52% 0.00 in meteobridge W/m2
11:49 31.8 °F 16.2 °F 30.33 in Calm   3.0 mph 52% 0.00 in meteobridge W/m2
11:54 32.0 °F 16.0 °F 30.33 in SW 2.0 mph 7.0 mph 51% 0.00 in meteobridge W/m2
11:59 32.2 °F 15.6 °F 30.33 in Calm   7.0 mph 50% 0.00 in meteobridge W/m2
12:04 32.5 °F 16.9 °F 30.32 in Calm   3.0 mph 52% 0.00 in meteobridge W/m2
12:09 32.5 °F 16.3 °F 30.33 in Calm   6.0 mph 51% 0.00 in meteobridge W/m2
12:14 32.7 °F 16.2 °F 30.33 in ESE 0.9 mph 5.0 mph 50% 0.00 in meteobridge W/m2
12:19 32.9 °F 16.7 °F 30.32 in Calm   7.0 mph 51% 0.00 in meteobridge W/m2
12:24 32.9 °F 16.3 °F 30.32 in Calm     50% 0.00 in meteobridge W/m2
12:29 33.1 °F 16.5 °F 30.33 in North 4.0 mph 4.0 mph 50% 0.00 in meteobridge W/m2
12:34 33.1 °F 16.9 °F 30.33 in Calm   4.0 mph 51% 0.00 in meteobridge W/m2
12:39 33.3 °F 17.6 °F 30.32 in Calm   4.0 mph 52% 0.00 in meteobridge W/m2
12:44 33.3 °F 17.1 °F 30.32 in WNW 2.9 mph 7.0 mph 51% 0.00 in meteobridge W/m2
12:49 33.3 °F 17.1 °F 30.32 in Calm   5.0 mph 51% 0.00 in meteobridge W/m2
12:54 33.3 °F 17.1 °F 30.32 in Calm   6.0 mph 51% 0.00 in meteobridge W/m2
12:59 33.6 °F 17.4 °F 30.32 in West 4.0 mph 6.0 mph 51% 0.00 in meteobridge W/m2
13:04 33.6 °F 16.9 °F 30.32 in Calm   7.0 mph 50% 0.00 in meteobridge W/m2
13:09 33.6 °F 17.4 °F 30.32 in WSW 2.0 mph 6.0 mph 51% 0.00 in meteobridge W/m2
13:14 34.0 °F 18.1 °F 30.32 in NW 2.0 mph 4.0 mph 52% 0.00 in meteobridge W/m2
13:19 34.0 °F 18.1 °F 30.32 in Calm   4.0 mph 52% 0.00 in meteobridge W/m2
13:24 34.2 °F 18.0 °F 30.32 in North 2.9 mph 5.0 mph 51% 0.00 in meteobridge W/m2
13:29 34.0 °F 17.2 °F 30.32 in Calm     50% 0.00 in meteobridge W/m2
13:34 34.3 °F 19.0 °F 30.32 in Calm     53% 0.00 in meteobridge W/m2
13:39 34.5 °F 17.8 °F 30.32 in NW 6.0 mph 6.0 mph 50% 0.00 in meteobridge W/m2
13:44 34.3 °F 17.6 °F 30.32 in Calm   4.0 mph 50% 0.00 in meteobridge W/m2
13:49 34.9 °F 19.0 °F 30.32 in South 0.9 mph 2.0 mph 52% 0.00 in meteobridge W/m2
13:54 34.7 °F 18.9 °F 30.31 in Calm   2.0 mph 52% 0.00 in meteobridge W/m2
13:59 35.1 °F 18.3 °F 30.31 in NW 2.9 mph 3.0 mph 50% 0.00 in meteobridge W/m2
14:04 35.1 °F 17.8 °F 30.31 in Calm   5.0 mph 49% 0.00 in meteobridge W/m2
14:09 35.1 °F 17.8 °F 30.31 in Calm   5.0 mph 49% 0.00 in meteobridge W/m2
14:14 35.1 °F 18.3 °F 30.31 in WNW 6.9 mph 7.0 mph 50% 0.00 in meteobridge W/m2
14:19 35.1 °F 18.3 °F 30.31 in West 0.9 mph 5.0 mph 50% 0.00 in meteobridge W/m2
14:24 34.9 °F 17.6 °F 30.30 in Calm   3.0 mph 49% 0.00 in meteobridge W/m2
14:29 34.9 °F 17.2 °F 30.31 in North 4.0 mph 8.0 mph 48% 0.00 in meteobridge W/m2
14:34 34.9 °F 18.1 °F 30.30 in Calm   2.0 mph 50% 0.00 in meteobridge W/m2
14:39 35.1 °F 18.3 °F 30.31 in Calm   1.0 mph 50% 0.00 in meteobridge W/m2
14:44 35.2 °F 17.6 °F 30.30 in Calm   7.0 mph 48% 0.00 in meteobridge W/m2
14:49 35.2 °F 18.5 °F 30.31 in Calm     50% 0.00 in meteobridge W/m2
14:54 35.4 °F 18.7 °F 30.31 in Calm   7.0 mph 50% 0.00 in meteobridge W/m2
14:59 35.4 °F 17.6 °F 30.31 in Calm   6.0 mph 48% 0.00 in meteobridge W/m2
15:04 35.6 °F 18.3 °F 30.31 in West 0.9 mph 2.0 mph 49% 0.00 in meteobridge W/m2
15:09 35.8 °F 18.5 °F 30.31 in WNW 2.0 mph 4.0 mph 49% 0.00 in meteobridge W/m2
15:14 35.8 °F 19.0 °F 30.31 in Calm   1.0 mph 50% 0.00 in meteobridge W/m2
15:19 35.8 °F 18.5 °F 30.31 in WNW 10.1 mph 10.0 mph 49% 0.00 in meteobridge W/m2
15:24 35.8 °F 17.6 °F 30.31 in SSE 2.0 mph 2.0 mph 47% 0.00 in meteobridge W/m2
15:29 35.8 °F 17.6 °F 30.31 in Calm   2.0 mph 47% 0.00 in meteobridge W/m2
15:34 35.8 °F 18.0 °F 30.31 in South 2.0 mph 4.0 mph 48% 0.00 in meteobridge W/m2
15:39 35.4 °F 17.6 °F 30.31 in NW 0.9 mph 10.0 mph 48% 0.00 in meteobridge W/m2
15:44 35.2 °F 17.1 °F 30.32 in Calm   6.0 mph 47% 0.00 in meteobridge W/m2
15:49 35.1 °F 17.8 °F 30.31 in Calm   6.0 mph 49% 0.00 in meteobridge W/m2
15:54 34.9 °F 17.6 °F 30.32 in Calm   3.0 mph 49% 0.00 in meteobridge W/m2
15:59 34.9 °F 16.7 °F 30.32 in Calm   6.0 mph 47% 0.00 in meteobridge W/m2
16:04 34.7 °F 17.4 °F 30.32 in NNW 0.9 mph 5.0 mph 49% 0.00 in meteobridge W/m2
16:09 34.5 °F 16.9 °F 30.32 in Calm   3.0 mph 48% 0.00 in meteobridge W/m2
16:14 34.3 °F 17.2 °F 30.32 in Calm   3.0 mph 49% 0.00 in meteobridge W/m2
16:19 34.5 °F 17.2 °F 30.32 in Calm   1.0 mph 49% 0.00 in meteobridge W/m2
16:24 34.5 °F 16.9 °F 30.32 in Calm   2.0 mph 48% 0.00 in meteobridge W/m2
16:29 34.7 °F 17.1 °F 30.32 in NNW 4.0 mph 4.0 mph 48% 0.00 in meteobridge W/m2
16:34 34.9 °F 16.7 °F 30.31 in Calm     47% 0.00 in meteobridge W/m2
16:39 34.9 °F 16.7 °F 30.32 in WNW 4.0 mph 7.0 mph 47% 0.00 in meteobridge W/m2
16:44 34.7 °F 16.0 °F 30.32 in WSW 4.0 mph 7.0 mph 46% 0.00 in meteobridge W/m2
16:49 34.5 °F 16.9 °F 30.32 in Calm   1.0 mph 48% 0.00 in meteobridge W/m2
16:54 34.5 °F 16.9 °F 30.32 in Calm     48% 0.00 in meteobridge W/m2
16:59 34.5 °F 17.2 °F 30.32 in Calm     49% 0.00 in meteobridge W/m2
17:04 34.3 °F 17.2 °F 30.32 in Calm   1.0 mph 49% 0.00 in meteobridge W/m2
17:09 34.3 °F 16.2 °F 30.32 in Calm   7.0 mph 47% 0.00 in meteobridge W/m2
17:14 34.2 °F 18.0 °F 30.32 in Calm     51% 0.00 in meteobridge W/m2
17:19 34.0 °F 18.1 °F 30.32 in West 0.9 mph 1.0 mph 52% 0.00 in meteobridge W/m2
17:24 33.6 °F 17.8 °F 30.32 in Calm     52% 0.00 in meteobridge W/m2
17:29 33.6 °F 16.9 °F 30.32 in Calm   3.0 mph 50% 0.00 in meteobridge W/m2
17:34 33.4 °F 17.2 °F 30.32 in West 0.9 mph 4.0 mph 51% 0.00 in meteobridge W/m2
17:39 33.3 °F 17.6 °F 30.32 in Calm     52% 0.00 in meteobridge W/m2
17:44 33.3 °F 17.1 °F 30.32 in Calm     51% 0.00 in meteobridge W/m2
17:49 33.1 °F 18.3 °F 30.32 in Calm     54% 0.00 in meteobridge W/m2
17:54 32.7 °F 18.0 °F 30.32 in Calm     54% 0.00 in meteobridge W/m2
17:59 32.5 °F 17.8 °F 30.32 in Calm     54% 0.00 in meteobridge W/m2
18:04 32.4 °F 17.1 °F 30.32 in Calm     53% 0.00 in meteobridge W/m2
18:09 32.0 °F 17.2 °F 30.32 in Calm     54% 0.00 in meteobridge W/m2
18:14 31.8 °F 17.4 °F 30.32 in Calm   1.0 mph 55% 0.00 in meteobridge W/m2
18:19 31.5 °F 17.2 °F 30.32 in Calm     55% 0.00 in meteobridge W/m2
18:24 31.3 °F 17.4 °F 30.32 in Calm     56% 0.00 in meteobridge W/m2
18:29 30.9 °F 18.0 °F 30.32 in Calm     58% 0.00 in meteobridge W/m2
18:34 30.6 °F 17.1 °F 30.32 in Calm     57% 0.00 in meteobridge W/m2
18:39 30.4 °F 17.4 °F 30.32 in Calm     58% 0.00 in meteobridge W/m2
18:44 30.0 °F 17.8 °F 30.32 in Calm     60% 0.00 in meteobridge W/m2
18:49 29.8 °F 17.6 °F 30.32 in Calm     60% 0.00 in meteobridge W/m2
18:54 29.5 °F 17.2 °F 30.32 in Calm     60% 0.00 in meteobridge W/m2
18:59 29.3 °F 17.6 °F 30.33 in Calm     61% 0.00 in meteobridge W/m2
19:04 29.1 °F 17.8 °F 30.33 in Calm     62% 0.00 in meteobridge W/m2
19:09 28.9 °F 17.6 °F 30.33 in Calm     62% 0.00 in meteobridge W/m2
19:14 28.8 °F 15.4 °F 30.33 in Calm   1.0 mph 57% 0.00 in meteobridge W/m2
19:19 28.8 °F 15.8 °F 30.33 in Calm     58% 0.00 in meteobridge W/m2
19:24 28.6 °F 17.6 °F 30.33 in Calm     63% 0.00 in meteobridge W/m2
19:29 28.6 °F 18.0 °F 30.33 in Calm     64% 0.00 in meteobridge W/m2
19:34 28.4 °F 17.8 °F 30.34 in Calm     64% 0.00 in meteobridge W/m2
19:39 28.2 °F 17.2 °F 30.34 in Calm     63% 0.00 in meteobridge W/m2
19:44 28.2 °F 16.9 °F 30.34 in Calm     62% 0.00 in meteobridge W/m2
19:49 28.0 °F 17.4 °F 30.34 in Calm     64% 0.00 in meteobridge W/m2
19:54 27.9 °F 17.6 °F 30.34 in Calm     65% 0.00 in meteobridge W/m2
19:59 27.7 °F 17.4 °F 30.34 in Calm     65% 0.00 in meteobridge W/m2
20:04 27.7 °F 17.8 °F 30.34 in Calm     66% 0.00 in meteobridge W/m2
20:09 27.5 °F 17.2 °F 30.34 in Calm     65% 0.00 in meteobridge W/m2
20:14 27.3 °F 16.0 °F 30.34 in Calm     62% 0.00 in meteobridge W/m2
20:19 27.1 °F 16.2 °F 30.34 in Calm     63% 0.00 in meteobridge W/m2
20:24 27.0 °F 17.4 °F 30.34 in Calm     67% 0.00 in meteobridge W/m2
20:29 26.8 °F 17.2 °F 30.34 in Calm     67% 0.00 in meteobridge W/m2
20:34 26.8 °F 17.2 °F 30.35 in Calm     67% 0.00 in meteobridge W/m2
20:39 26.6 °F 17.1 °F 30.35 in Calm     67% 0.00 in meteobridge W/m2
20:44 26.4 °F 16.3 °F 30.35 in Calm     65% 0.00 in meteobridge W/m2
20:49 26.2 °F 16.2 °F 30.35 in Calm     65% 0.00 in meteobridge W/m2
20:54 26.2 °F 16.2 °F 30.36 in Calm     65% 0.00 in meteobridge W/m2
20:59 26.1 °F 16.0 °F 30.36 in Calm     65% 0.00 in meteobridge W/m2
21:04 26.1 °F 16.3 °F 30.36 in Calm     66% 0.00 in meteobridge W/m2
21:09 25.9 °F 16.5 °F 30.36 in Calm     67% 0.00 in meteobridge W/m2
21:14 25.7 °F 16.5 °F 30.36 in Calm     68% 0.00 in meteobridge W/m2
21:19 25.5 °F 16.5 °F 30.36 in Calm     68% 0.00 in meteobridge W/m2
21:24 25.5 °F 16.7 °F 30.36 in Calm     69% 0.00 in meteobridge W/m2
21:29 25.3 °F 16.5 °F 30.36 in Calm     69% 0.00 in meteobridge W/m2
21:34 25.2 °F 16.7 °F 30.36 in Calm     70% 0.00 in meteobridge W/m2
21:39 25.2 °F 16.7 °F 30.36 in Calm     70% 0.00 in meteobridge W/m2
21:44 25.0 °F 16.5 °F 30.36 in Calm     70% 0.00 in meteobridge W/m2
21:49 24.6 °F 16.5 °F 30.36 in Calm     71% 0.00 in meteobridge W/m2
21:54 24.6 °F 16.5 °F 30.37 in Calm     71% 0.00 in meteobridge W/m2
21:59 24.4 °F 16.3 °F 30.37 in Calm     71% 0.00 in meteobridge W/m2
22:04 24.4 °F 16.7 °F 30.37 in Calm     72% 0.00 in meteobridge W/m2
22:09 24.3 °F 16.5 °F 30.37 in Calm     72% 0.00 in meteobridge W/m2
22:14 24.1 °F 16.7 °F 30.38 in Calm     73% 0.00 in meteobridge W/m2
22:19 24.1 °F 16.7 °F 30.38 in Calm     73% 0.00 in meteobridge W/m2
22:24 23.9 °F 16.5 °F 30.38 in Calm     73% 0.00 in meteobridge W/m2
22:29 23.7 °F 16.3 °F 30.39 in Calm     73% 0.00 in meteobridge W/m2
22:34 23.5 °F 16.5 °F 30.40 in Calm     74% 0.00 in meteobridge W/m2
22:39 23.5 °F 16.5 °F 30.40 in Calm     74% 0.00 in meteobridge W/m2
22:44 23.4 °F 16.3 °F 30.40 in Calm     74% 0.00 in meteobridge W/m2
22:49 23.4 °F 16.3 °F 30.41 in Calm     74% 0.00 in meteobridge W/m2
22:54 23.4 °F 16.3 °F 30.41 in Calm     74% 0.00 in meteobridge W/m2
22:59 23.2 °F 16.2 °F 30.41 in Calm     74% 0.00 in meteobridge W/m2
23:04 23.2 °F 16.5 °F 30.41 in Calm     75% 0.00 in meteobridge W/m2
23:09 23.2 °F 17.1 °F 30.41 in Calm     77% 0.00 in meteobridge W/m2
23:14 23.2 °F 17.1 °F 30.41 in Calm     77% 0.00 in meteobridge W/m2
23:19 23.2 °F 17.4 °F 30.41 in Calm     78% 0.00 in meteobridge W/m2
23:24 23.2 °F 17.1 °F 30.42 in Calm     77% 0.00 in meteobridge W/m2
23:29 23.2 °F 16.2 °F 30.42 in Calm     74% 0.00 in meteobridge W/m2
23:34 23.0 °F 16.0 °F 30.41 in Calm     74% 0.00 in meteobridge W/m2
23:39 22.8 °F 15.8 °F 30.41 in Calm     74% 0.00 in meteobridge W/m2
23:44 22.8 °F 16.2 °F 30.41 in Calm     75% 0.00 in meteobridge W/m2
23:49 22.8 °F 15.8 °F 30.41 in Calm     74% 0.00 in meteobridge W/m2
23:54 22.8 °F 15.4 °F 30.41 in Calm     73% 0.00 in meteobridge W/m2
23:59 22.8 °F 15.4 °F 30.41 in Calm     73% 0.00 in meteobridge W/m2
EllijayWeather
Compliments of Weather Underground - 2.5 mb